createdAt,value
2017-04-09T09:26:58.001Z,2525
2017-04-09T09:31:57.144Z,2545
2017-04-09T09:36:57.734Z,2625
2017-04-09T09:41:57.748Z,2860
2017-04-09T09:46:57.066Z,2700
2017-04-09T09:51:57.680Z,2460
2017-04-09T09:56:57.666Z,2295
2017-04-09T10:01:57.692Z,2125
2017-04-09T10:06:57.245Z,2095
2017-04-09T10:11:57.528Z,1920
2017-04-09T10:16:57.525Z,1810
2017-04-09T10:21:57.512Z,1765
2017-04-09T10:26:57.456Z,1660
2017-04-09T10:31:57.424Z,1585
2017-04-09T10:36:57.434Z,1510
2017-04-09T10:41:56.840Z,1455
2017-04-09T10:46:57.444Z,1280
2017-04-09T10:51:57.126Z,1175
2017-04-09T10:56:57.463Z,1030
2017-04-09T11:01:57.448Z,890
2017-04-09T11:06:57.424Z,755
2017-04-09T11:11:57.133Z,675
2017-04-09T11:16:57.168Z,605
2017-04-09T11:21:57.463Z,495
2017-04-09T11:26:57.476Z,370
2017-04-09T11:31:57.437Z,355
2017-04-09T11:36:57.412Z,340
2017-04-09T11:41:57.421Z,330
2017-04-09T11:46:57.110Z,335
2017-04-09T11:51:57.506Z,330
2017-04-09T11:56:57.400Z,335
2017-04-09T12:01:57.527Z,315
2017-04-09T12:06:57.106Z,305
2017-04-09T12:11:57.411Z,305
2017-04-09T12:16:57.453Z,290
2017-04-09T12:21:57.450Z,275
2017-04-09T12:26:57.494Z,270
2017-04-09T12:31:57.403Z,265
2017-04-09T12:36:57.395Z,260
2017-04-09T12:41:57.456Z,255
2017-04-09T12:46:57.412Z,255
2017-04-09T12:51:57.477Z,245
2017-04-09T12:56:57.457Z,245
2017-04-09T13:01:57.568Z,240
2017-04-09T13:06:57.256Z,230
2017-04-09T13:11:56.921Z,230
2017-04-09T13:16:57.189Z,225
2017-04-09T13:21:56.863Z,225
2017-04-09T13:26:57.105Z,220
2017-04-09T13:31:57.133Z,215
2017-04-09T13:36:56.433Z,215
2017-04-09T13:41:57.009Z,205
2017-04-09T13:46:56.667Z,205
2017-04-09T13:51:56.325Z,205
2017-04-09T13:56:56.972Z,200
2017-04-09T14:01:56.690Z,195
2017-04-09T14:06:56.984Z,195
2017-04-09T14:11:57.024Z,190
2017-04-09T14:16:56.933Z,190
2017-04-09T14:21:56.949Z,185
2017-04-09T14:26:56.632Z,180
2017-04-09T14:31:56.931Z,180
2017-04-09T14:36:56.907Z,180
2017-04-09T14:41:56.886Z,175
2017-04-09T14:46:56.905Z,170
2017-04-09T14:51:56.893Z,165
2017-04-09T14:56:56.603Z,160
2017-04-09T15:01:56.618Z,160
2017-04-09T15:06:56.888Z,155
2017-04-09T15:11:56.916Z,155
2017-04-09T15:16:56.894Z,150
2017-04-09T15:21:56.615Z,145
2017-04-09T15:26:56.552Z,140
2017-04-09T15:31:56.861Z,140
2017-04-09T15:36:56.850Z,140
2017-04-09T15:41:56.848Z,135
2017-04-09T15:46:56.844Z,135
2017-04-09T15:51:56.572Z,130
2017-04-09T15:56:56.842Z,130
2017-04-09T16:01:56.518Z,125
2017-04-09T16:06:56.560Z,125
2017-04-09T16:11:56.524Z,120
2017-04-09T16:16:56.814Z,115
2017-04-09T16:21:56.516Z,115
2017-04-09T16:26:56.536Z,120
2017-04-09T16:31:56.511Z,120
2017-04-09T16:36:56.794Z,105
2017-04-09T16:41:56.797Z,105
2017-04-09T16:46:56.502Z,100
2017-04-09T16:51:56.810Z,95
2017-04-09T16:56:56.819Z,90
2017-04-09T17:01:56.492Z,85
2017-04-09T17:06:56.800Z,85
2017-04-09T17:11:56.474Z,80
2017-04-09T17:16:56.462Z,75
2017-04-09T17:21:56.775Z,70
2017-04-09T17:26:56.771Z,65
2017-04-09T17:31:56.802Z,60
2017-04-09T17:36:56.798Z,55
2017-04-09T17:41:56.799Z,45
2017-04-09T17:46:56.439Z,40
2017-04-09T17:51:56.743Z,35
2017-04-09T17:56:56.932Z,30
